Погода Грусковона неделю

Минская область, Белоруссия

25 - 31 мая
  • 25мая
    Сегодня
    +11°
    +25°
    Облачно с прояснениями
    ВремяПогодаТемператураВлажностьДавлениеВетер, м/сВероятность осадков
    00:00Ясно и безоблачно+17°C67 %753 мм4.1 м/с2 %
    03:00Практически безоблачно+15°C68 %753 мм4.6 м/с2 %
    06:00Облачно с прояснениями+14°C67 %753 мм4.4 м/с2 %
    09:00Облачно с прояснениями+19°C60 %753 мм4.4 м/с2 %
    12:00Облачно с прояснениями+22°C57 %753 мм5.7 м/с22 %
    15:00Облачно с прояснениями+25°C44 %753 мм5.2 м/с41 %
    18:00Облачно с прояснениями+25°C43 %752 мм3.1 м/с19 %
    21:00Облачно с прояснениями+21°C54 %752 мм3.9 м/с7 %
  • 26мая
    Воскресенье
    +10°
    +25°
    Практически безоблачно
    ВремяПогодаТемператураВлажностьДавлениеВетер, м/сВероятность осадков
    00:00Облачно с прояснениями+16°C49 %752 мм3.9 м/с2 %
    03:00Облачно с прояснениями+14°C55 %752 мм3.3 м/с2 %
    06:00Облачно с прояснениями+12°C64 %752 мм2.6 м/с3 %
    09:00Облачно с прояснениями+18°C57 %753 мм2.4 м/с1 %
    12:00Ясно и безоблачно+23°C32 %753 мм3.1 м/с2 %
    15:00Практически безоблачно+24°C33 %753 мм2.9 м/с2 %
    18:00Ясно и безоблачно+25°C35 %752 мм2.8 м/с2 %
    21:00Ясно и безоблачно+19°C59 %752 мм2.1 м/с2 %
  • 27мая
    Понедельник
    +11°
    +27°
    Облачно с прояснениями
    ВремяПогодаТемператураВлажностьДавлениеВетер, м/сВероятность осадков
    00:00Практически безоблачно+17°C65 %752 мм1.1 м/с2 %
    03:00Небольшая облачность+11°C87 %752 мм2.2 м/с2 %
    06:00Облачно с прояснениями+12°C77 %752 мм2.1 м/с2 %
    09:00Облачно с прояснениями+20°C56 %753 мм1.9 м/с2 %
    12:00Облачно с прояснениями+24°C37 %753 мм3.1 м/с2 %
    15:00Облачно с прояснениями+25°C36 %752 мм2.6 м/с2 %
    18:00Небольшая облачность+26°C36 %751 мм2.3 м/с2 %
    21:00Ясно и безоблачно+20°C61 %751 мм2.4 м/с2 %
  • 28мая
    Вторник
    +14°
    +27°
    Ясно и безоблачно
    ВремяПогодаТемператураВлажностьДавлениеВетер, м/сВероятность осадков
    00:00Ясно и безоблачно+14°C69 %751 мм2.8 м/с2 %
    03:00Ясно и безоблачно+14°C68 %750 мм2.4 м/с2 %
    06:00Ясно и безоблачно+12°C80 %750 мм2.3 м/с2 %
    09:00Ясно и безоблачно+20°C61 %750 мм2.8 м/с2 %
    12:00Практически безоблачно+25°C36 %750 мм4.2 м/с6 %
    15:00Ясно и безоблачно+25°C34 %749 мм3.7 м/с24 %
    18:00Практически безоблачно+27°C33 %748 мм3.3 м/с35 %
    21:00Ясно и безоблачно+22°C61 %748 мм4.1 м/с13 %
  • 29мая
    Среда
    +14°
    +27°
    Практически безоблачно
    ВремяПогодаТемператураВлажностьДавлениеВетер, м/сВероятность осадков
    00:00Ясно и безоблачно+17°C80 %748 мм3.5 м/с2 %
    03:00Практически безоблачно+15°C82 %747 мм3.2 м/с2 %
    06:00Практически безоблачно+15°C81 %747 мм3.2 м/с2 %
    09:00Практически безоблачно+21°C61 %747 мм3.8 м/с2 %
    12:00Практически безоблачно+26°C32 %746 мм5.0 м/с13 %
    15:00Практически безоблачно+26°C28 %746 мм3.8 м/с30 %
    18:00Ясно и безоблачно+26°C32 %744 мм3.1 м/с28 %
    21:00Ясно и безоблачно+22°C54 %744 мм3.7 м/с7 %
Мы используем cookies
Соглашаюсь